Time;durP1;ratioP1;P1;durP2;ratioP2;P2;SDS_P1;SDS_P2;PMS_P1;PMS_P2;Temp;Humidity;BMP_temperature;BMP_pressure;BME280_temperature;BME280_humidity;BME280_pressure;Samples;Min_cycle;Max_cycle;Signal;HPM_P1;HPM_P2
2023/01/11 07:12:24;;;;;;;3.63;2.40;;;;;;;;;;5471888;23;25050;-92
2023/01/11 10:35:46;;;;;;;4.53;2.85;;;;;;;;;;4899577;29;20095;-86
2023/01/11 10:41:45;;;;;;;6.00;3.67;;;;;;;;;;4922657;29;20036;-88
2023/01/11 10:44:23;;;;;;;3.72;3.22;;;;;;;;;;4932054;29;20506;-91
2023/01/11 10:46:51;;;;;;;3.85;3.17;;;;;;;;;;4939844;29;20019;-86
2023/01/11 10:49:27;;;;;;;3.80;3.00;;;;;;;;;;4939176;29;20032;-91
2023/01/11 10:51:59;;;;;;;4.72;3.28;;;;;;;;;;4940827;29;20107;-90
2023/01/11 10:54:31;;;;;;;4.63;3.40;;;;;;;;;;4940493;29;20048;-88
2023/01/11 10:57:12;;;;;;;3.65;3.03;;;;;;;;;;4939058;29;20409;-90
2023/01/11 10:59:45;;;;;;;4.13;3.03;;;;;;;;;;4939559;29;20474;-92
2023/01/11 11:02:20;;;;;;;4.18;2.88;;;;;;;;;;4939594;29;20079;-93
2023/01/11 11:05:12;;;;;;;3.25;2.88;;;;;;;;;;4940244;29;20474;-91
2023/01/11 11:07:57;;;;;;;4.57;3.22;;;;;;;;;;4939406;29;20024;-89
2023/01/11 11:10:58;;;;;;;4.00;2.78;;;;;;;;;;4940338;29;20039;-92
2023/01/11 11:13:51;;;;;;;2.85;2.55;;;;;;;;;;4938893;29;20036;-92
2023/01/11 11:16:23;;;;;;;3.10;2.67;;;;;;;;;;4938959;29;20031;-91
2023/01/11 11:18:54;;;;;;;3.55;2.40;;;;;;;;;;4939667;29;20114;-89
2023/01/11 11:21:47;;;;;;;3.35;2.80;;;;;;;;;;4940243;29;20028;-93
2023/01/11 11:24:32;;;;;;;3.03;2.72;;;;;;;;;;4937691;29;20498;-92
2023/01/11 11:27:32;;;;;;;4.43;2.75;;;;;;;;;;4939089;29;20028;-91
2023/01/11 11:29:57;;;;;;;2.78;2.40;;;;;;;;;;4938476;29;20039;-90
2023/01/11 11:32:27;;;;;;;2.78;2.42;;;;;;;;;;4938420;29;20174;-90
2023/01/11 11:34:53;;;;;;;6.18;2.47;;;;;;;;;;4938078;29;20031;-90
2023/01/11 11:37:26;;;;;;;3.53;2.38;;;;;;;;;;4938754;29;20020;-92
2023/01/11 11:39:53;;;;;;;3.38;2.78;;;;;;;;;;4942509;29;20107;-89
2023/01/11 11:42:20;;;;;;;3.45;2.53;;;;;;;;;;4938738;29;20545;-93
2023/01/11 11:45:14;;;;;;;6.20;2.40;;;;;;;;;;4938718;29;20127;-93
2023/01/11 11:47:58;;;;;;;2.55;2.35;;;;;;;;;;4940461;29;20086;-90
2023/01/11 11:50:25;;;;;;;2.72;2.10;;;;;;;;;;4938981;29;20517;-93
2023/01/11 11:53:02;;;;;;;2.90;2.55;;;;;;;;;;4939203;29;20127;-94
2023/01/11 11:55:30;;;;;;;5.05;2.40;;;;;;;;;;4938637;29;20032;-93
2023/01/11 11:57:58;;;;;;;2.95;2.58;;;;;;;;;;4938354;29;20024;-94
2023/01/11 12:00:33;;;;;;;2.75;2.40;;;;;;;;;;4938582;29;20092;-93
2023/01/11 12:03:32;;;;;;;2.88;2.58;;;;;;;;;;4939732;29;20063;-95
2023/01/11 12:06:03;;;;;;;2.92;2.45;;;;;;;;;;4933747;29;20429;-95
2023/01/11 12:08:31;;;;;;;3.65;2.10;;;;;;;;;;4938154;29;20466;-95
2023/01/11 12:11:02;;;;;;;2.97;2.20;;;;;;;;;;4938079;29;20031;-94
2023/01/11 12:13:39;;;;;;;5.88;2.50;;;;;;;;;;4937981;29;20040;-95
2023/01/11 12:16:19;;;;;;;3.47;2.17;;;;;;;;;;4937829;29;20055;-95
2023/01/11 12:18:45;;;;;;;2.80;2.20;;;;;;;;;;4943096;29;20043;-96
2023/01/11 12:21:23;;;;;;;2.80;2.40;;;;;;;;;;4944863;29;20020;-95
2023/01/11 12:24:21;;;;;;;2.95;2.42;;;;;;;;;;4940961;29;20123;-92
2023/01/11 12:26:46;;;;;;;2.35;2.08;;;;;;;;;;4937699;29;20099;-93
2023/01/11 12:29:26;;;;;;;3.33;2.55;;;;;;;;;;4937205;29;20083;-93
2023/01/11 12:32:10;;;;;;;3.17;2.83;;;;;;;;;;4937537;29;20028;-91
2023/01/11 12:34:42;;;;;;;4.05;2.78;;;;;;;;;;4936778;29;20554;-89
2023/01/11 12:37:19;;;;;;;4.60;3.30;;;;;;;;;;4936894;29;20035;-89
2023/01/11 12:39:57;;;;;;;4.40;2.83;;;;;;;;;;4936795;29;20497;-89
2023/01/11 12:42:41;;;;;;;2.80;2.60;;;;;;;;;;4937059;29;20032;-89
2023/01/11 12:45:28;;;;;;;3.15;2.33;;;;;;;;;;4936814;29;20049;-91
2023/01/11 18:19:23;;;;;;;3.80;3.10;;;;;;;;;;4925884;29;20040;-90
2023/01/11 18:21:53;;;;;;;4.28;3.38;;;;;;;;;;4918017;29;20075;-91
2023/01/11 18:24:20;;;;;;;10.30;5.82;;;;;;;;;;4916527;29;20509;-91
2023/01/11 18:26:46;;;;;;;21.52;12.20;;;;;;;;;;4916404;29;20064;-91
2023/01/11 18:29:37;;;;;;;19.77;12.23;;;;;;;;;;4916708;29;20031;-90
2023/01/11 18:32:04;;;;;;;9.35;6.90;;;;;;;;;;4917591;29;20052;-90
2023/01/11 18:34:30;;;;;;;9.90;5.85;;;;;;;;;;4916737;29;20032;-92
2023/01/11 18:36:58;;;;;;;8.18;5.40;;;;;;;;;;4916365;29;20056;-89
2023/01/11 18:39:23;;;;;;;13.48;7.82;;;;;;;;;;4916732;29;20029;-91
2023/01/11 18:42:06;;;;;;;15.68;10.02;;;;;;;;;;4916271;29;20032;-88
2023/01/11 18:44:40;;;;;;;9.50;6.35;;;;;;;;;;4916350;29;20099;-89
2023/01/11 18:47:19;;;;;;;7.55;5.50;;;;;;;;;;4916045;29;20498;-91
2023/01/11 18:49:46;;;;;;;9.23;4.53;;;;;;;;;;4916429;29;20039;-91
2023/01/11 18:52:12;;;;;;;8.65;4.25;;;;;;;;;;4918000;29;20034;-90
2023/01/11 18:54:38;;;;;;;11.77;6.38;;;;;;;;;;4916569;29;20025;-92
2023/01/11 18:57:04;;;;;;;11.38;7.45;;;;;;;;;;4917590;29;20027;-89
2023/01/11 18:59:30;;;;;;;8.20;5.43;;;;;;;;;;4920150;29;20032;-93
2023/01/11 19:02:01;;;;;;;7.32;4.60;;;;;;;;;;4919847;29;20032;-88
2023/01/11 19:04:27;;;;;;;9.73;4.65;;;;;;;;;;4920544;29;20040;-88
2023/01/11 19:06:52;;;;;;;6.50;4.88;;;;;;;;;;4920594;29;20032;-87
2023/01/11 19:09:18;;;;;;;13.93;6.43;;;;;;;;;;4920703;29;20032;-85
2023/01/11 19:11:43;;;;;;;9.43;5.47;;;;;;;;;;4920386;29;20028;-86
2023/01/11 19:14:09;;;;;;;8.45;4.95;;;;;;;;;;4920652;29;20025;-86
2023/01/11 19:16:35;;;;;;;10.57;7.13;;;;;;;;;;4920405;29;20028;-87
2023/01/11 19:19:00;;;;;;;16.80;10.98;;;;;;;;;;4926462;29;20054;-89
2023/01/11 19:21:26;;;;;;;30.73;19.63;;;;;;;;;;4939344;29;20107;-88
2023/01/11 19:23:51;;;;;;;12.90;8.45;;;;;;;;;;4939534;29;20035;-87
2023/01/11 19:26:17;;;;;;;9.48;5.55;;;;;;;;;;4939385;29;20446;-89
2023/01/11 19:28:42;;;;;;;8.18;5.57;;;;;;;;;;4939629;29;20051;-89
2023/01/11 19:31:10;;;;;;;9.45;7.05;;;;;;;;;;4939374;29;20107;-88
2023/01/11 19:33:36;;;;;;;10.13;7.30;;;;;;;;;;4939557;29;20091;-87
2023/01/11 19:36:08;;;;;;;8.82;6.78;;;;;;;;;;4938506;29;20043;-89
2023/01/11 19:38:34;;;;;;;10.57;7.10;;;;;;;;;;4938971;29;20478;-88
2023/01/11 19:41:05;;;;;;;11.13;6.25;;;;;;;;;;4937588;29;20031;-88
2023/01/11 19:43:31;;;;;;;9.57;6.05;;;;;;;;;;4938853;29;20031;-88
2023/01/11 19:45:57;;;;;;;8.70;5.80;;;;;;;;;;4938899;29;20051;-91
2023/01/11 19:48:23;;;;;;;6.43;5.38;;;;;;;;;;4937914;29;20032;-89
2023/01/11 19:50:48;;;;;;;8.73;5.40;;;;;;;;;;4939074;29;20463;-89
2023/01/11 19:53:14;;;;;;;4.93;3.95;;;;;;;;;;4937816;29;20036;-90
2023/01/11 19:55:40;;;;;;;4.35;3.38;;;;;;;;;;4937606;29;20534;-88
2023/01/11 19:58:07;;;;;;;4.32;3.20;;;;;;;;;;4938073;29;20035;-90
2023/01/11 20:00:33;;;;;;;3.97;3.47;;;;;;;;;;4940474;29;20530;-89
2023/01/11 20:03:04;;;;;;;6.05;3.95;;;;;;;;;;4937652;29;20034;-90
2023/01/11 20:05:33;;;;;;;6.57;4.45;;;;;;;;;;4938680;29;20024;-91
2023/01/11 20:07:58;;;;;;;4.53;4.05;;;;;;;;;;4938483;29;20107;-89
2023/01/11 20:10:24;;;;;;;6.20;4.15;;;;;;;;;;4937654;29;20051;-90
2023/01/11 20:12:50;;;;;;;6.35;3.92;;;;;;;;;;4947237;29;20498;-89
2023/01/11 20:15:16;;;;;;;15.13;10.43;;;;;;;;;;4959463;29;20035;-89
2023/01/11 20:17:42;;;;;;;17.83;12.05;;;;;;;;;;4959973;29;20011;-89
2023/01/11 20:20:08;;;;;;;15.52;9.98;;;;;;;;;;4959483;29;20048;-89
2023/01/11 20:22:34;;;;;;;10.45;7.40;;;;;;;;;;4960711;29;20034;-89
2023/01/11 20:24:59;;;;;;;7.13;5.50;;;;;;;;;;4960504;28;20039;-90
2023/01/11 20:27:26;;;;;;;21.85;13.55;;;;;;;;;;4960269;29;20019;-90
2023/01/11 20:29:51;;;;;;;27.30;15.75;;;;;;;;;;4960905;29;20031;-90
2023/01/11 20:32:17;;;;;;;22.73;14.88;;;;;;;;;;4958331;29;20036;-89
2023/01/11 20:34:43;;;;;;;17.13;12.30;;;;;;;;;;4948260;29;20078;-90
2023/01/11 20:37:08;;;;;;;23.27;17.95;;;;;;;;;;4941025;29;20118;-90
2023/01/11 20:39:34;;;;;;;13.68;10.10;;;;;;;;;;4939682;29;20547;-90
2023/01/11 20:42:01;;;;;;;6.75;5.93;;;;;;;;;;4940834;29;20039;-93
2023/01/11 20:44:27;;;;;;;13.48;12.25;;;;;;;;;;4938769;29;20030;-91
2023/01/11 20:46:54;;;;;;;10.25;8.25;;;;;;;;;;4938573;29;20535;-92
2023/01/11 20:49:25;;;;;;;7.88;6.05;;;;;;;;;;4938919;29;20122;-94
2023/01/11 20:51:50;;;;;;;11.77;10.73;;;;;;;;;;4938618;29;20067;-93
2023/01/11 20:54:16;;;;;;;11.20;8.65;;;;;;;;;;4937005;29;20364;-93
2023/01/11 20:56:45;;;;;;;8.52;6.80;;;;;;;;;;4936766;29;20486;-93
2023/01/11 20:59:12;;;;;;;8.98;6.88;;;;;;;;;;4936906;29;20055;-93
2023/01/11 21:01:38;;;;;;;8.52;6.07;;;;;;;;;;4936867;29;20079;-94
2023/01/11 21:04:08;;;;;;;5.72;5.10;;;;;;;;;;4936660;29;20435;-92
2023/01/11 21:06:38;;;;;;;5.63;5.00;;;;;;;;;;4936479;29;20095;-93
2023/01/11 21:09:05;;;;;;;7.70;5.70;;;;;;;;;;4936789;29;20024;-93
2023/01/11 21:11:31;;;;;;;8.27;6.43;;;;;;;;;;4936474;29;20027;-93
2023/01/11 21:13:58;;;;;;;10.23;6.57;;;;;;;;;;4936566;29;20553;-92
2023/01/11 21:16:27;;;;;;;6.88;5.53;;;;;;;;;;4923635;29;20055;-93
2023/01/11 21:18:55;;;;;;;6.85;5.38;;;;;;;;;;4935701;29;20463;-93
2023/01/11 21:21:21;;;;;;;7.43;5.72;;;;;;;;;;4936360;29;20039;-93
2023/01/11 21:23:46;;;;;;;7.75;5.88;;;;;;;;;;4936412;29;20079;-94
2023/01/11 21:26:17;;;;;;;10.05;6.95;;;;;;;;;;4936256;29;20115;-93
2023/01/11 21:28:43;;;;;;;10.25;6.90;;;;;;;;;;4935753;29;20030;-95
2023/01/11 21:31:11;;;;;;;13.07;7.45;;;;;;;;;;4936937;29;20063;-95
2023/01/11 21:33:37;;;;;;;10.55;7.28;;;;;;;;;;4936221;29;20036;-94
2023/01/11 21:36:04;;;;;;;10.80;8.38;;;;;;;;;;4936023;29;20036;-93
2023/01/11 21:38:31;;;;;;;9.57;6.60;;;;;;;;;;4936079;29;20036;-95
2023/01/11 21:41:15;;;;;;;11.85;6.70;;;;;;;;;;4936506;29;20108;-95
2023/01/11 21:43:41;;;;;;;8.93;5.82;;;;;;;;;;4936226;29;20035;-94
2023/01/11 21:46:08;;;;;;;7.00;4.95;;;;;;;;;;4936533;29;20071;-96
2023/01/11 21:48:35;;;;;;;7.32;4.60;;;;;;;;;;4923002;29;20039;-95
2023/01/11 21:51:01;;;;;;;5.32;4.13;;;;;;;;;;4936301;29;20050;-96
2023/01/11 21:53:31;;;;;;;6.82;4.40;;;;;;;;;;4935957;29;20118;-96
2023/01/11 21:56:07;;;;;;;5.82;4.20;;;;;;;;;;4935958;29;20020;-95
2023/01/11 21:58:33;;;;;;;5.38;3.92;;;;;;;;;;4936107;29;20126;-96
2023/01/11 22:00:59;;;;;;;7.28;4.55;;;;;;;;;;4935853;29;20036;-96
2023/01/11 22:03:28;;;;;;;5.25;3.92;;;;;;;;;;4936060;29;20027;-95
2023/01/11 22:06:01;;;;;;;5.57;4.30;;;;;;;;;;4935883;29;20027;-96
2023/01/11 22:08:26;;;;;;;6.85;4.32;;;;;;;;;;4936039;29;20028;-95
2023/01/11 22:11:00;;;;;;;5.55;4.45;;;;;;;;;;4935866;29;20034;-95
2023/01/11 22:13:30;;;;;;;5.15;4.40;;;;;;;;;;4935586;29;20501;-95
2023/01/11 22:16:00;;;;;;;5.32;4.45;;;;;;;;;;4935766;29;20031;-96
2023/01/11 22:18:26;;;;;;;7.75;4.10;;;;;;;;;;4935697;29;20055;-95
2023/01/11 22:20:51;;;;;;;5.63;4.05;;;;;;;;;;4937076;29;20024;-95
2023/01/11 22:23:17;;;;;;;6.22;4.20;;;;;;;;;;4935721;29;20387;-94
2023/01/11 22:25:42;;;;;;;9.02;5.00;;;;;;;;;;4935470;29;20036;-95
2023/01/11 22:28:08;;;;;;;5.15;3.88;;;;;;;;;;4935578;29;20024;-95
2023/01/11 22:30:33;;;;;;;5.30;4.18;;;;;;;;;;4936362;29;20454;-95
2023/01/11 22:32:59;;;;;;;7.20;4.45;;;;;;;;;;4939413;29;20035;-94
2023/01/11 22:35:25;;;;;;;6.55;4.38;;;;;;;;;;4940052;29;20486;-94
2023/01/11 22:37:50;;;;;;;6.90;4.50;;;;;;;;;;4939450;29;20032;-95
2023/01/11 22:40:16;;;;;;;6.43;4.20;;;;;;;;;;4939743;29;20390;-95
2023/01/11 22:42:41;;;;;;;4.38;3.20;;;;;;;;;;4939315;29;20028;-95
2023/01/11 22:45:08;;;;;;;3.53;3.22;;;;;;;;;;4939389;29;20039;-95
2023/01/11 22:47:34;;;;;;;3.90;3.00;;;;;;;;;;4939429;29;20043;-94
2023/01/11 22:49:59;;;;;;;4.13;3.20;;;;;;;;;;4939239;29;20028;-95
2023/01/11 22:52:25;;;;;;;5.80;4.38;;;;;;;;;;4939454;29;20066;-95
2023/01/11 22:54:50;;;;;;;4.05;3.35;;;;;;;;;;4939401;29;20028;-95
2023/01/11 22:57:16;;;;;;;4.28;3.40;;;;;;;;;;4939305;29;20079;-96
2023/01/11 22:59:42;;;;;;;4.57;3.60;;;;;;;;;;4939313;29;20499;-96
2023/01/11 23:02:07;;;;;;;6.88;3.65;;;;;;;;;;4939150;29;20474;-96
2023/01/11 23:04:33;;;;;;;5.55;3.95;;;;;;;;;;4939103;29;20490;-93
2023/01/11 23:06:59;;;;;;;5.90;4.43;;;;;;;;;;4939035;29;20040;-92
2023/01/11 23:09:24;;;;;;;7.22;5.00;;;;;;;;;;4939037;29;20027;-92
2023/01/11 23:14:34;;;;;;;5.07;3.45;;;;;;;;;;4940137;29;20493;-92
2023/01/11 23:17:05;;;;;;;6.00;4.65;;;;;;;;;;4938673;29;20028;-92
2023/01/11 23:19:32;;;;;;;4.97;3.80;;;;;;;;;;4938590;29;20051;-91
2023/01/11 23:21:57;;;;;;;9.65;5.88;;;;;;;;;;4939065;29;20032;-92
2023/01/11 23:24:23;;;;;;;10.80;6.15;;;;;;;;;;4940444;29;20034;-92
2023/01/11 23:26:49;;;;;;;9.75;5.38;;;;;;;;;;4941993;29;20437;-92
2023/01/11 23:29:14;;;;;;;6.45;4.80;;;;;;;;;;4942311;29;20497;-92
2023/01/11 23:31:41;;;;;;;6.03;4.60;;;;;;;;;;4941864;29;20539;-93
2023/01/11 23:34:08;;;;;;;5.35;4.45;;;;;;;;;;4950789;29;20072;-96
2023/01/11 23:36:36;;;;;;;6.75;5.10;;;;;;;;;;4952721;28;20039;-93
